createdAt,value
2023-02-16T00:00:02.711Z,20.7
2023-02-16T00:01:05.238Z,20.9
2023-02-16T00:02:08.150Z,20.7
2023-02-16T00:03:10.962Z,20.8
2023-02-16T00:04:13.170Z,21
2023-02-16T00:05:15.390Z,20.9
2023-02-16T00:06:17.598Z,20.9
2023-02-16T00:07:19.829Z,20.9
2023-02-16T00:08:22.326Z,21
2023-02-16T00:09:24.856Z,20.8
2023-02-16T00:10:27.088Z,20.8
2023-02-16T00:11:29.600Z,21
2023-02-16T00:12:32.096Z,20.8
2023-02-16T00:13:34.623Z,21
2023-02-16T00:14:37.187Z,21
2023-02-16T00:15:39.774Z,21
2023-02-16T00:16:42.529Z,21.1
2023-02-16T00:17:44.765Z,21.1
2023-02-16T00:18:47.276Z,20.9
2023-02-16T00:19:49.521Z,20.9
2023-02-16T00:20:52.038Z,20.6
2023-02-16T00:21:54.547Z,21
2023-02-16T00:22:57.066Z,21.1
2023-02-16T00:23:59.564Z,20.8
2023-02-16T00:25:02.165Z,21.1
2023-02-16T00:26:04.697Z,20.7
2023-02-16T00:27:06.637Z,21
2023-02-16T00:28:09.130Z,21.1
2023-02-16T00:29:11.638Z,20.8
2023-02-16T00:30:13.963Z,21
2023-02-16T00:31:16.982Z,20.9
2023-02-16T00:32:20.534Z,21
2023-02-16T00:33:23.458Z,20.9
2023-02-16T00:34:25.949Z,21.2
2023-02-16T00:35:28.476Z,20.9
2023-02-16T00:36:30.961Z,21.1
2023-02-16T00:37:33.449Z,21
2023-02-16T00:38:35.657Z,21
2023-02-16T00:39:38.148Z,21
2023-02-16T00:40:40.442Z,21.2
2023-02-16T00:41:43.007Z,21.2
2023-02-16T00:42:45.542Z,21.1
2023-02-16T00:43:48.063Z,21.2
2023-02-16T00:44:50.587Z,21.1
2023-02-16T00:45:52.841Z,21.4
2023-02-16T00:46:55.309Z,21.2
2023-02-16T00:47:57.940Z,21.2
2023-02-16T00:49:00.437Z,21.1
2023-02-16T00:50:02.967Z,21.2
2023-02-16T00:51:16.945Z,21.2
2023-02-16T00:52:10.437Z,21.1
2023-02-16T00:53:12.954Z,21.3
2023-02-16T00:54:15.472Z,21.3
2023-02-16T00:55:17.708Z,21.2
2023-02-16T00:56:19.934Z,21.2
2023-02-16T00:57:22.432Z,21.3
2023-02-16T00:58:24.848Z,21.1
2023-02-16T00:59:27.153Z,21.2
2023-02-16T01:00:29.685Z,21.2
2023-02-16T01:01:32.492Z,21.3
2023-02-16T01:02:35.252Z,21.1
2023-02-16T01:03:37.966Z,21.3
2023-02-16T01:04:40.277Z,21.3
2023-02-16T01:05:42.816Z,21.3
2023-02-16T01:06:44.794Z,21.2
2023-02-16T01:07:47.286Z,21.2
2023-02-16T01:08:49.271Z,21.3
2023-02-16T01:09:51.493Z,21.2
2023-02-16T01:10:53.430Z,21.2
2023-02-16T01:11:55.391Z,21.3
2023-02-16T01:12:57.676Z,21.3
2023-02-16T01:13:59.933Z,21.4
2023-02-16T01:15:02.161Z,21.3
2023-02-16T01:16:04.440Z,21.3
2023-02-16T01:17:06.790Z,21.2
2023-02-16T01:18:09.326Z,21.2
2023-02-16T01:19:11.938Z,21.4
2023-02-16T01:20:14.188Z,21.3
2023-02-16T01:21:16.706Z,21.1
2023-02-16T01:22:18.923Z,21.3
2023-02-16T01:23:21.163Z,21.2
2023-02-16T01:24:23.378Z,21.3
2023-02-16T01:25:25.068Z,21.2
2023-02-16T01:26:27.581Z,21.3
2023-02-16T01:27:30.117Z,21.3
2023-02-16T01:28:32.604Z,21.2
2023-02-16T01:29:35.103Z,21.5
2023-02-16T01:30:37.608Z,21.3
2023-02-16T01:31:39.992Z,21.3
2023-02-16T01:32:43.267Z,21.5
2023-02-16T01:33:45.773Z,21.5
2023-02-16T01:34:48.561Z,21.3
2023-02-16T01:35:50.785Z,21.4
2023-02-16T01:36:53.108Z,21.3
2023-02-16T01:37:55.631Z,21.5
2023-02-16T01:38:57.880Z,21.4
2023-02-16T01:40:00.369Z,21.4
2023-02-16T01:41:03.224Z,21.5
2023-02-16T01:42:06.693Z,21.4
2023-02-16T01:43:09.273Z,21.5
2023-02-16T01:44:11.571Z,21.2
2023-02-16T01:45:14.116Z,21.5
2023-02-16T01:46:16.378Z,21.4
2023-02-16T01:47:18.948Z,21.2
2023-02-16T01:48:21.218Z,21.5
2023-02-16T01:49:23.454Z,21.5
2023-02-16T01:50:26.106Z,21.4
2023-02-16T01:51:28.627Z,21.2
2023-02-16T01:52:30.339Z,21.3
2023-02-16T01:53:32.588Z,21.4
2023-02-16T01:54:35.124Z,21.5
2023-02-16T01:55:37.652Z,21.5
2023-02-16T01:56:39.902Z,21.4
2023-02-16T01:57:42.137Z,21.2
2023-02-16T01:58:44.688Z,21.4
2023-02-16T01:59:46.926Z,21.6
2023-02-16T02:00:49.454Z,21.5
2023-02-16T02:01:51.696Z,21.5
2023-02-16T02:02:54.513Z,21.4
2023-02-16T02:03:57.389Z,21.3
2023-02-16T02:05:00.159Z,21.3
2023-02-16T02:06:02.793Z,21.5
2023-02-16T02:07:05.296Z,21.6
2023-02-16T02:08:07.833Z,21.3
2023-02-16T02:09:10.325Z,21.3
2023-02-16T02:10:12.879Z,21.5
2023-02-16T02:11:15.402Z,21.5
2023-02-16T02:12:17.909Z,21.3
2023-02-16T02:13:20.160Z,21.4
2023-02-16T02:14:22.656Z,21.3
2023-02-16T02:15:25.236Z,21.5
2023-02-16T02:16:27.836Z,21.4
2023-02-16T02:17:30.720Z,21.3
2023-02-16T02:18:33.216Z,21.3
2023-02-16T02:19:35.472Z,21.5
2023-02-16T02:20:37.952Z,21.4
2023-02-16T02:21:40.679Z,21.5
2023-02-16T02:22:42.899Z,21.4
2023-02-16T02:23:45.418Z,21.3
2023-02-16T02:24:47.677Z,21.6
2023-02-16T02:25:50.167Z,21.5
2023-02-16T02:26:52.422Z,21.7
2023-02-16T02:27:54.634Z,21.4
2023-02-16T02:28:56.853Z,21.4
2023-02-16T02:29:59.142Z,21.3
2023-02-16T02:31:02.190Z,21.4
2023-02-16T02:32:07.316Z,21.3
2023-02-16T02:33:10.207Z,21.4
2023-02-16T02:34:12.701Z,21.4
2023-02-16T02:35:15.212Z,21.5
2023-02-16T02:36:17.723Z,21.5
2023-02-16T02:37:20.489Z,21.3
2023-02-16T02:38:23.006Z,21.5
2023-02-16T02:39:25.243Z,21.6
2023-02-16T02:40:27.479Z,21.5
2023-02-16T02:41:29.978Z,21.3
2023-02-16T02:42:32.462Z,21.4
2023-02-16T02:43:34.968Z,21.5
2023-02-16T02:44:37.484Z,21.4
2023-02-16T02:45:39.991Z,21.4
2023-02-16T02:46:42.548Z,21.5
2023-02-16T02:47:45.369Z,21.5
2023-02-16T02:48:47.608Z,21.4
2023-02-16T02:49:50.116Z,21.3
2023-02-16T02:50:52.648Z,21.5
2023-02-16T02:51:55.124Z,21.7
2023-02-16T02:52:57.759Z,21.5
2023-02-16T02:54:00.278Z,21.5
2023-02-16T02:55:02.533Z,21.4
2023-02-16T02:56:04.194Z,21.3
2023-02-16T02:57:06.412Z,21.5
2023-02-16T02:58:09.035Z,21.6
2023-02-16T02:59:11.561Z,21.5
2023-02-16T03:00:14.104Z,21.5
2023-02-16T03:01:16.387Z,21.7
2023-02-16T03:02:19.165Z,21.3
2023-02-16T03:03:21.962Z,21.5
2023-02-16T03:04:24.238Z,21.4
2023-02-16T03:05:26.725Z,21.4
2023-02-16T03:06:29.324Z,21.7
2023-02-16T03:07:31.846Z,21.3
2023-02-16T03:08:34.441Z,21.5
2023-02-16T03:09:36.648Z,21.5
2023-02-16T03:10:39.167Z,21.3
2023-02-16T03:11:41.109Z,21.5
2023-02-16T03:12:43.115Z,21.4
2023-02-16T03:13:45.360Z,21.6
2023-02-16T03:14:47.587Z,21.6
2023-02-16T03:15:50.086Z,21.3
2023-02-16T03:16:52.580Z,21.7
2023-02-16T03:17:55.079Z,21.5
2023-02-16T03:18:57.601Z,21.7
2023-02-16T03:19:59.795Z,21.5
2023-02-16T03:21:02.713Z,21.7
2023-02-16T03:22:06.517Z,21.4
2023-02-16T03:23:09.125Z,21.4
2023-02-16T03:24:11.712Z,21.7
2023-02-16T03:25:13.667Z,21.5
2023-02-16T03:26:16.177Z,21.6
2023-02-16T03:27:18.728Z,21.5
2023-02-16T03:28:21.259Z,21.4
2023-02-16T03:29:23.487Z,21.4
2023-02-16T03:30:26.107Z,21.5
2023-02-16T03:31:29.657Z,21.6
2023-02-16T03:32:32.851Z,21.6
2023-02-16T03:33:35.043Z,21.5
2023-02-16T03:34:37.573Z,21.5
2023-02-16T03:35:40.099Z,21.4
2023-02-16T03:36:42.610Z,21.6
2023-02-16T03:37:45.134Z,21.7
2023-02-16T03:38:47.461Z,21.8
2023-02-16T03:39:49.894Z,21.6
2023-02-16T03:40:52.399Z,21.6
2023-02-16T03:41:54.933Z,21.6
2023-02-16T03:42:57.555Z,21.3
2023-02-16T03:43:59.821Z,21.7
2023-02-16T03:45:02.073Z,21.6
2023-02-16T03:46:04.670Z,21.4
2023-02-16T03:47:07.422Z,21.5
2023-02-16T03:48:09.919Z,21.5
2023-02-16T03:49:12.453Z,21.6
2023-02-16T03:50:14.425Z,21.5
2023-02-16T03:51:16.664Z,21.6
2023-02-16T03:52:18.905Z,21.7
2023-02-16T03:53:21.531Z,21.5
2023-02-16T03:54:24.075Z,21.4
2023-02-16T03:55:26.747Z,21.7
2023-02-16T03:56:29.281Z,21.4
2023-02-16T03:57:31.800Z,21.7
2023-02-16T03:58:34.331Z,21.6
2023-02-16T03:59:36.534Z,21.6
2023-02-16T04:00:38.769Z,21.6
2023-02-16T04:01:40.985Z,21.6
2023-02-16T04:02:43.387Z,21.4
2023-02-16T04:03:45.950Z,21.4
2023-02-16T04:04:48.750Z,21.6
2023-02-16T04:05:51.289Z,21.6
2023-02-16T04:06:53.522Z,21.4
2023-02-16T04:07:55.755Z,21.6
2023-02-16T04:08:58.306Z,21.5
2023-02-16T04:10:00.932Z,21.3
2023-02-16T04:11:04.272Z,21.5
2023-02-16T04:12:07.764Z,21.6
2023-02-16T04:13:10.260Z,21.3
2023-02-16T04:14:12.487Z,21.5
2023-02-16T04:15:14.987Z,21.5
2023-02-16T04:16:17.558Z,21.4
2023-02-16T04:17:20.188Z,21.4
2023-02-16T04:18:22.400Z,21.4
2023-02-16T04:19:24.930Z,21.6
2023-02-16T04:20:27.430Z,21.4
2023-02-16T04:21:29.683Z,21.2
2023-02-16T04:22:32.185Z,21.4
2023-02-16T04:23:34.189Z,21.2
2023-02-16T04:24:36.723Z,21.3
2023-02-16T04:25:38.943Z,21.1
2023-02-16T04:26:41.553Z,21.3
2023-02-16T04:27:44.102Z,21.2
2023-02-16T04:28:46.614Z,21.3
2023-02-16T04:29:48.824Z,21.3
2023-02-16T04:30:51.097Z,21.2
2023-02-16T04:31:53.758Z,21.1
2023-02-16T04:32:57.113Z,21.1
2023-02-16T04:33:59.617Z,21.2
2023-02-16T04:35:02.107Z,21.4
2023-02-16T04:36:04.358Z,21.2
2023-02-16T04:37:06.585Z,21.1
2023-02-16T04:38:09.086Z,21.2
2023-02-16T04:39:11.016Z,21.3
2023-02-16T04:40:13.254Z,21.3
2023-02-16T04:41:15.994Z,21.2
2023-02-16T04:42:18.466Z,21.2
2023-02-16T04:43:20.697Z,21.2
2023-02-16T04:44:23.179Z,21.2
2023-02-16T04:45:25.690Z,21.2
2023-02-16T04:46:27.957Z,21.2
2023-02-16T04:47:30.764Z,21.1
2023-02-16T04:48:33.273Z,21.2
2023-02-16T04:49:35.759Z,21.3
2023-02-16T04:50:38.022Z,21.2
2023-02-16T04:51:40.278Z,21.3
2023-02-16T04:52:42.486Z,21
2023-02-16T04:53:44.711Z,20.9
2023-02-16T04:54:46.665Z,21.1
2023-02-16T04:55:49.222Z,21.2
2023-02-16T04:56:51.748Z,21.3
2023-02-16T04:57:54.483Z,21.2
2023-02-16T04:58:56.988Z,21.3
2023-02-16T04:59:59.203Z,21.3
2023-02-16T05:01:02.122Z,21.2
2023-02-16T05:02:07.151Z,21.1
2023-02-16T05:03:09.646Z,21.2
2023-02-16T05:04:12.256Z,21.3
2023-02-16T05:05:15.071Z,21
2023-02-16T05:06:17.568Z,21.2
2023-02-16T05:07:20.076Z,21.1
2023-02-16T05:08:22.734Z,21.1
2023-02-16T05:09:25.233Z,21.1
2023-02-16T05:10:27.757Z,21.2
2023-02-16T05:11:30.330Z,21.1
2023-02-16T05:12:32.854Z,21.2
2023-02-16T05:13:35.564Z,21.1
2023-02-16T05:14:37.759Z,21.2
2023-02-16T05:15:40.360Z,21.1
2023-02-16T05:16:43.083Z,21.1
2023-02-16T05:17:45.587Z,21.1
2023-02-16T05:18:48.073Z,21.1
2023-02-16T05:19:50.591Z,21.1
2023-02-16T05:20:52.526Z,21.1
2023-02-16T05:21:55.100Z,21.1
2023-02-16T05:22:57.365Z,21.1
2023-02-16T05:23:59.869Z,21.1
2023-02-16T05:25:02.396Z,21.1
2023-02-16T05:26:04.903Z,21.1
2023-02-16T05:27:06.885Z,21
2023-02-16T05:28:09.437Z,21.1
2023-02-16T05:29:12.289Z,21
2023-02-16T05:30:14.836Z,21.1
2023-02-16T05:31:17.496Z,21.3
2023-02-16T05:32:20.609Z,21
2023-02-16T05:33:23.209Z,21
2023-02-16T05:34:25.427Z,21
2023-02-16T05:35:27.989Z,21
2023-02-16T05:36:30.527Z,21
2023-02-16T05:37:33.041Z,21.1
2023-02-16T05:38:35.272Z,21.1
2023-02-16T05:39:37.783Z,21
2023-02-16T05:40:40.291Z,21
2023-02-16T05:41:42.795Z,21.1
2023-02-16T05:42:44.764Z,20.9
2023-02-16T05:43:47.261Z,20.9
2023-02-16T05:44:49.957Z,21.2
2023-02-16T05:45:52.466Z,21.1
2023-02-16T05:46:55.278Z,21.1
2023-02-16T05:47:57.505Z,21.3
2023-02-16T05:48:59.744Z,21.2
2023-02-16T05:50:01.979Z,20.9
2023-02-16T05:51:04.393Z,21.1
2023-02-16T05:52:07.666Z,21.2
2023-02-16T05:53:10.163Z,21
2023-02-16T05:54:12.655Z,21.2
2023-02-16T05:55:15.200Z,20.9
2023-02-16T05:56:17.718Z,21.1
2023-02-16T05:57:20.214Z,21.2
2023-02-16T05:58:22.493Z,21.1
2023-02-16T05:59:24.725Z,21
2023-02-16T06:00:27.341Z,21.1
2023-02-16T06:01:29.866Z,21.1
2023-02-16T06:02:32.407Z,21
2023-02-16T06:03:35.182Z,21
2023-02-16T06:04:38.184Z,21.1
2023-02-16T06:05:40.812Z,21.1
2023-02-16T06:06:43.303Z,20.9
2023-02-16T06:07:45.833Z,20.9
2023-02-16T06:08:48.362Z,21.1
2023-02-16T06:09:50.865Z,20.9
2023-02-16T06:10:52.816Z,21.1
2023-02-16T06:11:55.338Z,20.9
2023-02-16T06:12:57.866Z,21.2
2023-02-16T06:14:00.139Z,21.1
2023-02-16T06:15:02.355Z,21.1
2023-02-16T06:16:05.026Z,21.3
2023-02-16T06:17:07.908Z,21.1
2023-02-16T06:18:10.436Z,21
2023-02-16T06:19:12.116Z,21
2023-02-16T06:20:14.644Z,20.9
2023-02-16T06:21:17.164Z,21.2
2023-02-16T06:22:19.660Z,21.1
2023-02-16T06:23:22.209Z,21
2023-02-16T06:24:24.704Z,21.1
2023-02-16T06:25:26.988Z,21
2023-02-16T06:26:29.545Z,21.1
2023-02-16T06:27:32.173Z,21.2
2023-02-16T06:28:34.666Z,21.1
2023-02-16T06:29:36.964Z,21.1
2023-02-16T06:30:39.475Z,20.8
2023-02-16T06:31:42.165Z,21
2023-02-16T06:32:45.178Z,21
2023-02-16T06:33:47.416Z,20.9
2023-02-16T06:34:49.653Z,21.2
2023-02-16T06:35:52.153Z,21
2023-02-16T06:36:54.674Z,21
2023-02-16T06:37:56.622Z,21
2023-02-16T06:38:59.144Z,21
2023-02-16T06:40:01.392Z,21
2023-02-16T06:41:04.314Z,20.9
2023-02-16T06:42:08.110Z,21
2023-02-16T06:43:10.335Z,21
2023-02-16T06:44:12.844Z,21.2
2023-02-16T06:45:15.408Z,21.1
2023-02-16T06:46:17.405Z,20.8
2023-02-16T06:47:20.199Z,21
2023-02-16T06:48:22.710Z,21.1
2023-02-16T06:49:27.419Z,21
2023-02-16T06:50:29.937Z,20.9
2023-02-16T06:51:32.482Z,20.8
2023-02-16T06:52:34.725Z,21
2023-02-16T06:53:36.937Z,21.1
2023-02-16T06:54:39.440Z,21
2023-02-16T06:55:41.684Z,21
2023-02-16T06:56:44.402Z,20.9
2023-02-16T06:57:46.906Z,21.1
2023-02-16T06:58:49.529Z,21.1
2023-02-16T06:59:52.306Z,20.8
2023-02-16T07:00:54.935Z,21
2023-02-16T07:01:57.497Z,20.9
2023-02-16T07:03:00.322Z,21.2
2023-02-16T07:04:02.677Z,21.1
2023-02-16T07:05:05.251Z,21.1
2023-02-16T07:06:07.270Z,21
2023-02-16T07:07:09.845Z,21
2023-02-16T07:08:12.346Z,21
2023-02-16T07:09:14.945Z,20.9
2023-02-16T07:10:17.194Z,20.9
2023-02-16T07:11:19.688Z,21.1
2023-02-16T07:12:22.236Z,21
2023-02-16T07:13:24.742Z,21.3
2023-02-16T07:14:27.005Z,20.9
2023-02-16T07:15:29.433Z,21
2023-02-16T07:16:31.747Z,21
2023-02-16T07:17:34.694Z,20.9
2023-02-16T07:18:37.301Z,20.8
2023-02-16T07:19:39.821Z,21
2023-02-16T07:20:42.047Z,21.1
2023-02-16T07:21:44.296Z,20.8
2023-02-16T07:22:46.527Z,21.2
2023-02-16T07:23:48.207Z,21
2023-02-16T07:24:50.734Z,20.8
2023-02-16T07:25:53.297Z,20.9
2023-02-16T07:26:55.780Z,20.9
2023-02-16T07:27:58.295Z,21.1
2023-02-16T07:29:00.509Z,20.9
2023-02-16T07:30:02.853Z,20.9
2023-02-16T07:31:05.888Z,20.7
2023-02-16T07:32:10.321Z,21
2023-02-16T07:33:12.957Z,20.9
2023-02-16T07:34:15.590Z,21.2
2023-02-16T07:35:19.344Z,20.9
2023-02-16T07:36:21.698Z,20.7
2023-02-16T07:37:23.994Z,21
2023-02-16T07:38:26.248Z,20.9
2023-02-16T07:39:28.765Z,20.9
2023-02-16T07:40:31.031Z,21
2023-02-16T07:41:33.254Z,20.9
2023-02-16T07:42:35.455Z,20.9
2023-02-16T07:43:37.733Z,20.9
2023-02-16T07:44:40.352Z,21.1
2023-02-16T07:45:42.920Z,20.9
2023-02-16T07:46:45.625Z,20.9
2023-02-16T07:47:48.219Z,20.8
2023-02-16T07:48:50.742Z,21
2023-02-16T07:49:53.399Z,20.9
2023-02-16T07:50:55.367Z,21.2
2023-02-16T07:51:57.864Z,20.9
2023-02-16T07:53:00.379Z,21
2023-02-16T07:54:02.580Z,21
2023-02-16T07:55:05.093Z,20.9
2023-02-16T07:56:07.027Z,20.9
2023-02-16T07:57:09.561Z,21.1
2023-02-16T07:58:12.131Z,20.9
2023-02-16T07:59:14.380Z,20.8
2023-02-16T08:00:16.895Z,20.9
2023-02-16T08:01:19.152Z,20.7
2023-02-16T08:02:21.565Z,20.9
2023-02-16T08:03:24.830Z,20.9
2023-02-16T08:04:28.458Z,21
2023-02-16T08:05:31.122Z,20.7
2023-02-16T08:06:33.651Z,21
2023-02-16T08:07:36.200Z,20.8
2023-02-16T08:08:38.434Z,21
2023-02-16T08:09:40.669Z,20.9
2023-02-16T08:10:43.174Z,21
2023-02-16T08:11:45.138Z,20.8
2023-02-16T08:12:47.670Z,20.7
2023-02-16T08:13:50.382Z,20.8
2023-02-16T08:14:52.341Z,20.7
2023-02-16T08:15:54.893Z,20.9
2023-02-16T08:16:57.491Z,20.6
2023-02-16T08:18:00.336Z,20.9
2023-02-16T08:19:02.592Z,20.9
2023-02-16T08:20:04.858Z,20.8
2023-02-16T08:21:07.593Z,20.9
2023-02-16T08:22:10.160Z,20.7
2023-02-16T08:23:12.106Z,21.1
2023-02-16T08:24:14.356Z,20.8
2023-02-16T08:25:16.854Z,20.8
2023-02-16T08:26:19.089Z,20.7
2023-02-16T08:27:21.655Z,20.8
2023-02-16T08:28:23.876Z,20.9
2023-02-16T08:29:26.388Z,20.8
2023-02-16T08:30:28.954Z,20.8
2023-02-16T08:31:31.910Z,20.8
2023-02-16T08:32:34.544Z,20.8
2023-02-16T08:33:36.764Z,20.7
2023-02-16T08:34:40.951Z,20.8
2023-02-16T08:35:44.251Z,21
2023-02-16T08:36:46.892Z,20.9
2023-02-16T08:37:49.400Z,20.9
2023-02-16T08:38:51.929Z,20.8
2023-02-16T08:39:53.923Z,20.7
2023-02-16T08:40:56.424Z,20.9
2023-02-16T08:41:58.958Z,20.7
2023-02-16T08:43:01.192Z,20.8
2023-02-16T08:44:03.431Z,21
2023-02-16T08:45:05.962Z,21
2023-02-16T08:46:08.252Z,21.1
2023-02-16T08:47:11.211Z,20.9
2023-02-16T08:48:13.456Z,21
2023-02-16T08:49:15.964Z,20.9
2023-02-16T08:50:18.224Z,20.8
2023-02-16T08:51:20.455Z,21
2023-02-16T08:52:23.074Z,20.8
2023-02-16T08:53:25.600Z,20.8
2023-02-16T08:54:27.581Z,20.8
2023-02-16T08:55:30.112Z,20.8
2023-02-16T08:56:32.699Z,20.6
2023-02-16T08:57:35.017Z,20.7
2023-02-16T08:58:37.556Z,20.8
2023-02-16T08:59:40.720Z,20.9
2023-02-16T09:00:43.277Z,20.8
2023-02-16T09:01:45.643Z,21
2023-02-16T09:02:48.061Z,20.8
2023-02-16T09:03:50.833Z,20.9
2023-02-16T09:04:53.066Z,20.9
2023-02-16T09:05:55.612Z,21
2023-02-16T09:06:58.150Z,20.9
2023-02-16T09:08:00.830Z,20.9
2023-02-16T09:09:03.074Z,20.9
2023-02-16T09:10:05.578Z,20.7
2023-02-16T09:11:08.252Z,20.9
2023-02-16T09:12:10.787Z,21
2023-02-16T09:13:13.059Z,20.9
2023-02-16T09:14:15.762Z,20.9
2023-02-16T09:15:17.989Z,20.9
2023-02-16T09:16:20.071Z,20.9
2023-02-16T09:17:22.690Z,20.9
2023-02-16T09:18:24.922Z,20.8
2023-02-16T09:19:27.432Z,20.8
2023-02-16T09:20:30.122Z,21
2023-02-16T09:21:32.658Z,20.8
2023-02-16T09:22:34.985Z,21
2023-02-16T09:23:37.768Z,20.8
2023-02-16T09:24:39.748Z,21.1
2023-02-16T09:25:42.254Z,20.7
2023-02-16T09:26:44.886Z,20.8
2023-02-16T09:27:47.480Z,20.9
2023-02-16T09:28:50.024Z,20.9
2023-02-16T09:29:52.572Z,20.9
2023-02-16T09:30:55.430Z,21.1
2023-02-16T09:31:58.240Z,20.9
2023-02-16T09:33:00.802Z,21
2023-02-16T09:34:02.547Z,20.8
2023-02-16T09:35:04.787Z,21.1
2023-02-16T09:36:07.118Z,21.1
2023-02-16T09:37:09.580Z,21
2023-02-16T09:38:11.825Z,21
2023-02-16T09:39:14.537Z,20.9
2023-02-16T09:40:17.089Z,21
2023-02-16T09:41:19.009Z,21.1
2023-02-16T09:42:20.958Z,21
2023-02-16T09:43:23.221Z,20.9
2023-02-16T09:44:25.742Z,21.1
2023-02-16T09:45:27.658Z,21.1
2023-02-16T09:46:30.268Z,21.1
2023-02-16T09:47:32.825Z,21.2
2023-02-16T09:48:35.087Z,21
2023-02-16T09:49:37.768Z,21.1
2023-02-16T09:50:53.249Z,21
2023-02-16T09:51:45.009Z,21.1
2023-02-16T09:52:47.283Z,21.1
2023-02-16T09:53:54.702Z,21.1
2023-02-16T09:54:57.340Z,21.1
2023-02-16T09:55:59.612Z,20.9
2023-02-16T09:57:02.201Z,21.1
2023-02-16T09:58:04.689Z,21.1
2023-02-16T09:59:06.892Z,21
2023-02-16T10:00:12.584Z,20.9
2023-02-16T10:01:15.130Z,21
2023-02-16T10:02:17.614Z,21.1
2023-02-16T10:03:20.121Z,21
2023-02-16T10:04:22.751Z,21.1
2023-02-16T10:05:24.768Z,21.2
2023-02-16T10:06:27.303Z,20.9
2023-02-16T10:07:29.566Z,21.1
2023-02-16T10:08:32.119Z,21.1
2023-02-16T10:09:34.629Z,20.8
2023-02-16T10:10:39.803Z,20.8
2023-02-16T10:11:42.454Z,21.1
2023-02-16T10:12:44.966Z,21
2023-02-16T10:13:47.456Z,21
2023-02-16T10:14:49.981Z,21
2023-02-16T10:15:54.044Z,21
2023-02-16T10:16:55.918Z,20.8
2023-02-16T10:17:58.448Z,21
2023-02-16T10:19:00.968Z,20.9
2023-02-16T10:20:03.541Z,20.9
2023-02-16T10:21:06.360Z,21.1
2023-02-16T10:22:09.220Z,21.1
2023-02-16T10:23:11.477Z,21
2023-02-16T10:24:14.029Z,20.9
2023-02-16T10:25:16.520Z,20.8
2023-02-16T10:26:18.887Z,21
2023-02-16T10:27:21.393Z,21
2023-02-16T10:28:23.620Z,21
2023-02-16T10:29:26.162Z,21.1
2023-02-16T10:30:28.452Z,20.9
2023-02-16T10:31:31.486Z,20.9
2023-02-16T10:32:37.228Z,21
2023-02-16T10:33:39.369Z,21
2023-02-16T10:34:41.582Z,21
2023-02-16T10:35:44.086Z,21
2023-02-16T10:36:46.617Z,21
2023-02-16T10:37:49.124Z,21
2023-02-16T10:38:51.799Z,20.9
2023-02-16T10:39:54.057Z,21.1
2023-02-16T10:40:56.552Z,21.1
2023-02-16T10:41:59.304Z,21
2023-02-16T10:43:01.549Z,21
2023-02-16T10:44:04.062Z,20.9
2023-02-16T10:45:06.548Z,21
2023-02-16T10:46:09.092Z,21
2023-02-16T10:47:11.642Z,20.8
2023-02-16T10:48:14.259Z,20.9
2023-02-16T10:49:16.477Z,21
2023-02-16T10:50:19.011Z,20.6
2023-02-16T10:51:21.508Z,21.1
2023-02-16T10:52:27.468Z,21
2023-02-16T10:53:29.843Z,21
2023-02-16T10:54:32.364Z,21
2023-02-16T10:55:34.932Z,20.9
2023-02-16T10:56:37.452Z,21
2023-02-16T10:57:40.100Z,21
2023-02-16T10:58:42.415Z,21.1
2023-02-16T10:59:44.922Z,21
2023-02-16T11:00:47.490Z,21
2023-02-16T11:01:50.138Z,20.9
2023-02-16T11:02:52.683Z,20.9
2023-02-16T11:03:55.244Z,20.8
2023-02-16T11:04:57.788Z,21.1
2023-02-16T11:06:00.043Z,20.9
2023-02-16T11:07:03.332Z,21.1
2023-02-16T11:08:05.638Z,20.8
2023-02-16T11:09:07.899Z,21.1
2023-02-16T11:10:10.426Z,20.8
2023-02-16T11:11:13.005Z,20.9
2023-02-16T11:12:15.526Z,21
2023-02-16T11:13:18.137Z,20.9
2023-02-16T11:14:20.667Z,21.1
2023-02-16T11:15:22.901Z,21
2023-02-16T11:16:25.420Z,21.2
2023-02-16T11:17:27.636Z,20.8
2023-02-16T11:18:30.173Z,20.9
2023-02-16T11:19:32.678Z,20.9
2023-02-16T11:20:35.202Z,21
2023-02-16T11:21:37.143Z,21.1
2023-02-16T11:22:39.684Z,21
2023-02-16T11:23:42.216Z,21
2023-02-16T11:24:44.710Z,20.9
2023-02-16T11:25:46.969Z,20.9
2023-02-16T11:26:49.238Z,21
2023-02-16T11:27:51.740Z,20.9
2023-02-16T11:28:54.358Z,21.2
2023-02-16T11:29:57.127Z,20.8
2023-02-16T11:30:59.587Z,21
2023-02-16T11:32:03.114Z,20.8
2023-02-16T11:33:05.512Z,20.9
2023-02-16T11:34:07.770Z,21
2023-02-16T11:35:10.321Z,21
2023-02-16T11:36:12.975Z,20.8
2023-02-16T11:37:15.500Z,20.8
2023-02-16T11:38:18.026Z,20.9
2023-02-16T11:39:20.274Z,20.9
2023-02-16T11:40:22.829Z,20.9
2023-02-16T11:41:24.824Z,20.8
2023-02-16T11:42:27.361Z,20.9
2023-02-16T11:43:29.332Z,20.7
2023-02-16T11:44:31.950Z,20.9
2023-02-16T11:45:34.708Z,20.9
2023-02-16T11:46:37.314Z,20.9
2023-02-16T11:47:39.953Z,21.1
2023-02-16T11:48:42.161Z,20.9
2023-02-16T11:49:44.664Z,21
2023-02-16T11:50:46.890Z,20.8
2023-02-16T11:51:49.413Z,21
2023-02-16T11:52:51.700Z,21
2023-02-16T11:53:54.228Z,20.7
2023-02-16T11:54:56.854Z,21.1
2023-02-16T11:55:59.108Z,20.9
2023-02-16T11:57:01.644Z,20.9
2023-02-16T11:58:04.230Z,21
2023-02-16T11:59:06.727Z,20.9
2023-02-16T12:00:09.072Z,21
2023-02-16T12:01:11.577Z,20.9
2023-02-16T12:02:14.123Z,21
2023-02-16T12:03:16.635Z,20.9
2023-02-16T12:04:18.883Z,21
2023-02-16T12:05:21.487Z,21
2023-02-16T12:06:23.244Z,21
2023-02-16T12:07:25.480Z,21
2023-02-16T12:08:27.991Z,20.9
2023-02-16T12:09:31.134Z,21.1
2023-02-16T12:10:33.707Z,20.8
2023-02-16T12:11:36.243Z,20.7
2023-02-16T12:12:38.773Z,20.8
2023-02-16T12:13:41.322Z,20.9
2023-02-16T12:14:43.835Z,20.8
2023-02-16T12:15:46.468Z,21
2023-02-16T12:16:48.774Z,20.8
2023-02-16T12:17:51.319Z,21
2023-02-16T12:18:53.546Z,20.9
2023-02-16T12:19:55.536Z,21
2023-02-16T12:20:58.043Z,21
2023-02-16T12:22:00.010Z,21
2023-02-16T12:23:02.247Z,21
2023-02-16T12:24:04.497Z,20.9
2023-02-16T12:25:07.024Z,20.8
2023-02-16T12:26:09.543Z,21
2023-02-16T12:27:11.522Z,21.1
2023-02-16T12:28:13.784Z,21
2023-02-16T12:29:16.334Z,21
2023-02-16T12:30:18.882Z,20.9
2023-02-16T12:31:21.773Z,20.9
2023-02-16T12:32:25.139Z,20.8
2023-02-16T12:33:27.392Z,21
2023-02-16T12:34:29.666Z,21.1
2023-02-16T12:35:32.244Z,21
2023-02-16T12:36:34.502Z,20.9
2023-02-16T12:37:36.788Z,21.1
2023-02-16T12:38:39.310Z,20.8
2023-02-16T12:39:41.260Z,20.9
2023-02-16T12:40:43.505Z,20.9
2023-02-16T12:41:46.035Z,20.9
2023-02-16T12:42:48.552Z,21
2023-02-16T12:43:51.079Z,20.9
2023-02-16T12:44:53.643Z,21.1
2023-02-16T12:45:56.242Z,20.9
2023-02-16T12:46:59.118Z,21
2023-02-16T12:48:01.627Z,21.1
2023-02-16T12:49:03.883Z,20.9
2023-02-16T12:50:06.386Z,20.9
2023-02-16T12:51:08.648Z,20.9
2023-02-16T12:52:11.163Z,20.9
2023-02-16T12:53:13.422Z,20.9
2023-02-16T12:54:15.884Z,21
2023-02-16T12:55:18.438Z,21.2
2023-02-16T12:56:20.951Z,20.9
2023-02-16T12:57:23.491Z,21
2023-02-16T12:58:25.447Z,21
2023-02-16T12:59:27.678Z,21
2023-02-16T13:00:30.213Z,20.9
2023-02-16T13:01:32.549Z,21.1
2023-02-16T13:02:35.495Z,21.2
2023-02-16T13:03:38.053Z,21
2023-02-16T13:04:41.208Z,21.2
2023-02-16T13:05:43.448Z,21
2023-02-16T13:06:45.947Z,21.1
2023-02-16T13:07:48.494Z,21
2023-02-16T13:08:50.748Z,20.9
2023-02-16T13:09:52.994Z,20.9
2023-02-16T13:10:54.963Z,20.9
2023-02-16T13:11:57.460Z,20.9
2023-02-16T13:13:03.020Z,21
2023-02-16T13:14:05.314Z,21.1
2023-02-16T13:15:07.629Z,20.9
2023-02-16T13:16:20.559Z,21
2023-02-16T13:17:14.884Z,21.1
2023-02-16T13:18:18.113Z,21
2023-02-16T13:19:20.615Z,21
2023-02-16T13:20:22.856Z,20.9
2023-02-16T13:21:25.143Z,21
2023-02-16T13:22:27.665Z,20.9
2023-02-16T13:23:29.663Z,21
2023-02-16T13:24:32.208Z,21
2023-02-16T13:25:34.239Z,21
2023-02-16T13:26:37.089Z,21.1
2023-02-16T13:27:39.404Z,21.1
2023-02-16T13:28:42.184Z,21.1
2023-02-16T13:29:45.603Z,21.1
2023-02-16T13:30:48.589Z,21
2023-02-16T13:31:51.940Z,21.2
2023-02-16T13:32:55.306Z,21.2
2023-02-16T13:33:57.957Z,21.1
2023-02-16T13:34:59.926Z,21.1
2023-02-16T13:36:02.908Z,20.9
2023-02-16T13:37:07.483Z,21
2023-02-16T13:38:09.429Z,21
2023-02-16T13:39:11.971Z,21
2023-02-16T13:40:13.923Z,21.2
2023-02-16T13:41:16.153Z,20.9
2023-02-16T13:42:18.659Z,21.1
2023-02-16T13:43:21.195Z,21.1
2023-02-16T13:44:23.717Z,21
2023-02-16T13:45:26.259Z,20.9
2023-02-16T13:46:28.837Z,21.1
2023-02-16T13:47:31.566Z,21.1
2023-02-16T13:48:34.085Z,21.1
2023-02-16T13:49:36.795Z,21.1
2023-02-16T13:50:39.331Z,21
2023-02-16T13:51:42.124Z,21.1
2023-02-16T13:52:44.098Z,21
2023-02-16T13:53:46.335Z,21
2023-02-16T13:54:48.822Z,20.9
2023-02-16T13:55:51.357Z,21.1
2023-02-16T13:56:53.916Z,21
2023-02-16T13:57:56.120Z,20.9
2023-02-16T13:58:58.651Z,20.8
2023-02-16T14:00:01.221Z,21.1
2023-02-16T14:01:03.928Z,21
2023-02-16T14:02:06.654Z,21
2023-02-16T14:03:11.073Z,21.2